createdAt,value
2018-08-04T00:01:08.217Z,0
2018-08-04T00:02:18.511Z,0
2018-08-04T00:03:28.811Z,0
2018-08-04T00:04:38.948Z,0
2018-08-04T00:05:49.112Z,0
2018-08-04T00:06:59.234Z,0
2018-08-04T00:08:09.402Z,0
2018-08-04T00:09:20.545Z,0
2018-08-04T00:10:30.692Z,0
2018-08-04T00:11:40.851Z,0
2018-08-04T00:12:51.088Z,0
2018-08-04T00:14:01.381Z,0
2018-08-04T00:15:10.994Z,0
2018-08-04T00:16:20.868Z,0
2018-08-04T00:17:31.093Z,0
2018-08-04T00:18:41.020Z,0
2018-08-04T00:19:51.167Z,0
2018-08-04T00:21:01.306Z,0
2018-08-04T00:22:11.442Z,0
2018-08-04T00:23:21.582Z,0
2018-08-04T00:24:31.783Z,0
2018-08-04T00:25:42.047Z,0
2018-08-04T00:26:52.202Z,0
2018-08-04T00:28:02.379Z,0
2018-08-04T00:29:12.650Z,0
2018-08-04T00:30:22.899Z,0
2018-08-04T00:31:32.767Z,0
2018-08-04T00:32:42.952Z,0
2018-08-04T00:33:53.086Z,0
2018-08-04T00:35:03.148Z,0
2018-08-04T00:36:13.318Z,0
2018-08-04T00:37:23.437Z,0
2018-08-04T00:38:33.679Z,0
2018-08-04T00:39:43.863Z,0
2018-08-04T00:40:54.054Z,0
2018-08-04T00:42:04.647Z,0
2018-08-04T00:43:14.816Z,0
2018-08-04T00:44:26.168Z,0
2018-08-04T00:45:36.308Z,0
2018-08-04T00:46:46.467Z,0
2018-08-04T00:47:56.735Z,0
2018-08-04T00:49:06.930Z,0
2018-08-04T00:50:17.104Z,0
2018-08-04T00:51:27.379Z,0
2018-08-04T00:52:37.657Z,0
2018-08-04T00:53:47.830Z,0
2018-08-04T00:54:58.040Z,0
2018-08-04T00:56:08.239Z,0
2018-08-04T00:57:18.489Z,0
2018-08-04T00:58:28.750Z,0
2018-08-04T00:59:38.930Z,0
2018-08-04T01:00:49.205Z,0
2018-08-04T01:01:59.085Z,0
2018-08-04T01:03:09.240Z,0
2018-08-04T01:04:19.632Z,0
2018-08-04T01:05:29.506Z,0
2018-08-04T01:06:39.649Z,0
2018-08-04T01:07:49.977Z,0
2018-08-04T01:09:00.096Z,0
2018-08-04T01:10:10.438Z,0
2018-08-04T01:11:20.228Z,0
2018-08-04T01:12:31.066Z,0
2018-08-04T01:13:42.342Z,0
2018-08-04T01:14:53.596Z,0
2018-08-04T01:16:03.958Z,0
2018-08-04T01:17:14.300Z,0
2018-08-04T01:18:24.482Z,0
2018-08-04T01:19:34.162Z,0
2018-08-04T01:20:44.281Z,0
2018-08-04T01:21:54.413Z,0
2018-08-04T01:23:04.554Z,0
2018-08-04T01:24:14.722Z,0
2018-08-04T01:25:25.009Z,0
2018-08-04T01:26:35.864Z,0
2018-08-04T01:27:46.012Z,0
2018-08-04T01:28:55.530Z,0
2018-08-04T01:30:05.792Z,0
2018-08-04T01:31:15.964Z,0
2018-08-04T01:32:26.105Z,0
2018-08-04T01:33:36.391Z,0
2018-08-04T01:34:46.571Z,0
2018-08-04T01:35:56.784Z,0
2018-08-04T01:37:07.054Z,0
2018-08-04T01:38:17.208Z,0
2018-08-04T01:39:27.384Z,0
2018-08-04T01:40:37.512Z,0
2018-08-04T01:41:47.657Z,0
2018-08-04T01:42:57.806Z,0
2018-08-04T01:44:08.023Z,0
2018-08-04T01:45:18.191Z,0
2018-08-04T01:46:28.403Z,0
2018-08-04T01:47:38.540Z,0
2018-08-04T01:48:48.702Z,0
2018-08-04T01:49:58.861Z,0
2018-08-04T01:51:09.098Z,0
2018-08-04T01:52:18.978Z,0
2018-08-04T01:53:29.212Z,0
2018-08-04T01:54:39.426Z,0
2018-08-04T01:55:49.647Z,0
2018-08-04T01:56:59.842Z,0
2018-08-04T01:58:10.047Z,0
2018-08-04T01:59:20.153Z,0
2018-08-04T02:00:30.316Z,0
2018-08-04T02:01:40.642Z,0
2018-08-04T02:02:50.812Z,0
2018-08-04T02:04:00.939Z,0
2018-08-04T02:05:10.810Z,0
2018-08-04T02:06:21.911Z,0
2018-08-04T02:07:31.935Z,0
2018-08-04T02:08:42.999Z,0
2018-08-04T02:09:53.195Z,0
2018-08-04T02:11:03.343Z,0
2018-08-04T02:12:13.456Z,0
2018-08-04T02:13:23.284Z,0
2018-08-04T02:14:33.409Z,0
2018-08-04T02:15:43.521Z,0
2018-08-04T02:16:53.721Z,0
2018-08-04T02:18:03.940Z,0
2018-08-04T02:19:13.837Z,0
2018-08-04T02:20:23.714Z,0
2018-08-04T02:21:33.489Z,0
2018-08-04T02:22:43.727Z,0
2018-08-04T02:23:53.965Z,0
2018-08-04T02:25:04.386Z,0
2018-08-04T02:26:14.507Z,0
2018-08-04T02:27:24.748Z,0
2018-08-04T02:28:34.875Z,0
2018-08-04T02:29:45.017Z,0
2018-08-04T02:30:54.909Z,0
2018-08-04T02:32:05.076Z,0
2018-08-04T02:33:15.217Z,0
2018-08-04T02:34:25.505Z,0
2018-08-04T02:35:35.655Z,0
2018-08-04T02:36:45.540Z,0
2018-08-04T02:37:55.776Z,0
2018-08-04T02:39:05.936Z,0
2018-08-04T02:40:16.102Z,0
2018-08-04T02:41:25.673Z,0
2018-08-04T02:42:35.794Z,0
2018-08-04T02:43:45.936Z,0
2018-08-04T02:44:56.120Z,0
2018-08-04T02:46:06.002Z,0
2018-08-04T02:47:15.765Z,0
2018-08-04T02:48:25.880Z,0
2018-08-04T02:49:36.024Z,0
2018-08-04T02:50:45.898Z,0
2018-08-04T02:51:55.716Z,0
2018-08-04T02:53:05.658Z,0
2018-08-04T02:54:16.790Z,0
2018-08-04T02:55:26.986Z,0
2018-08-04T02:56:37.242Z,0
2018-08-04T02:57:48.159Z,0
2018-08-04T02:58:58.288Z,0
2018-08-04T03:00:08.488Z,4
2018-08-04T03:01:18.671Z,4
2018-08-04T03:02:28.836Z,0
2018-08-04T03:03:39.008Z,0
2018-08-04T03:04:49.151Z,4
2018-08-04T03:05:59.315Z,0
2018-08-04T03:07:09.192Z,0
2018-08-04T03:08:19.371Z,4
2018-08-04T03:09:29.641Z,0
2018-08-04T03:10:39.627Z,4
2018-08-04T03:11:49.764Z,4
2018-08-04T03:12:59.887Z,8
2018-08-04T03:14:10.114Z,8
2018-08-04T03:15:20.371Z,8
2018-08-04T03:16:30.550Z,12
2018-08-04T03:17:40.763Z,12
2018-08-04T03:18:50.993Z,16
2018-08-04T03:20:01.127Z,16
2018-08-04T03:21:11.060Z,20
2018-08-04T03:22:20.936Z,24
2018-08-04T03:23:31.174Z,28
2018-08-04T03:24:41.325Z,32
2018-08-04T03:25:51.220Z,32
2018-08-04T03:27:01.364Z,40
2018-08-04T03:28:12.487Z,48
2018-08-04T03:29:22.628Z,56
2018-08-04T03:30:32.789Z,64
2018-08-04T03:31:42.713Z,72
2018-08-04T03:32:52.882Z,84
2018-08-04T03:34:03.276Z,92
2018-08-04T03:35:13.155Z,108
2018-08-04T03:36:23.024Z,116
2018-08-04T03:37:33.171Z,128
2018-08-04T03:38:43.341Z,144
2018-08-04T03:39:52.968Z,160
2018-08-04T03:41:03.120Z,176
2018-08-04T03:42:13.261Z,192
2018-08-04T03:43:23.396Z,212
2018-08-04T03:44:33.282Z,224
2018-08-04T03:45:43.452Z,240
2018-08-04T03:46:53.315Z,260
2018-08-04T03:48:03.101Z,280
2018-08-04T03:49:13.347Z,292
2018-08-04T03:50:23.555Z,312
2018-08-04T03:51:33.953Z,328
2018-08-04T03:52:44.090Z,352
2018-08-04T03:53:54.312Z,372
2018-08-04T03:55:04.485Z,396
2018-08-04T03:56:14.693Z,420
2018-08-04T03:57:24.873Z,452
2018-08-04T03:58:34.738Z,480
2018-08-04T03:59:45.068Z,512
2018-08-04T04:00:55.292Z,540
2018-08-04T04:02:05.429Z,560
2018-08-04T04:03:15.770Z,576
2018-08-04T04:04:25.893Z,592
2018-08-04T04:05:36.020Z,608
2018-08-04T04:06:46.124Z,632
2018-08-04T04:07:56.257Z,668
2018-08-04T04:09:06.274Z,688
2018-08-04T04:10:16.443Z,728
2018-08-04T04:11:26.629Z,756
2018-08-04T04:12:36.840Z,776
2018-08-04T04:13:46.991Z,820
2018-08-04T04:14:57.141Z,864
2018-08-04T04:16:07.297Z,884
2018-08-04T04:17:17.418Z,904
2018-08-04T04:18:27.797Z,912
2018-08-04T04:19:37.691Z,940
2018-08-04T04:20:47.818Z,952
2018-08-04T04:21:57.949Z,980
2018-08-04T04:23:08.122Z,1028
2018-08-04T04:24:18.166Z,1068
2018-08-04T04:25:28.319Z,1104
2018-08-04T04:26:38.542Z,1136
2018-08-04T04:27:48.406Z,1176
2018-08-04T04:28:58.575Z,1216
2018-08-04T04:30:08.720Z,1240
2018-08-04T04:31:18.913Z,1228
2018-08-04T04:32:29.149Z,1220
2018-08-04T04:33:39.348Z,1240
2018-08-04T04:34:49.577Z,1256
2018-08-04T04:35:59.707Z,1288
2018-08-04T04:37:09.867Z,1292
2018-08-04T04:38:21.263Z,1352
2018-08-04T04:39:31.428Z,1484
2018-08-04T04:40:41.595Z,1644
2018-08-04T04:41:51.835Z,1832
2018-08-04T04:43:01.743Z,2056
2018-08-04T04:44:11.670Z,2272
2018-08-04T04:45:21.796Z,2556
2018-08-04T04:46:31.922Z,2788
2018-08-04T04:47:42.037Z,3020
2018-08-04T04:48:51.909Z,3140
2018-08-04T04:50:01.768Z,3276
2018-08-04T04:51:11.569Z,3228
2018-08-04T04:52:21.732Z,3216
2018-08-04T04:53:31.892Z,3180
2018-08-04T04:54:42.042Z,3200
2018-08-04T04:55:52.187Z,3248
2018-08-04T04:57:02.367Z,3308
2018-08-04T04:58:12.692Z,3436
2018-08-04T04:59:22.580Z,3632
2018-08-04T05:00:32.693Z,3648
2018-08-04T05:01:42.864Z,3468
2018-08-04T05:02:52.733Z,3196
2018-08-04T05:04:02.903Z,2948
2018-08-04T05:05:13.042Z,2776
2018-08-04T05:06:23.280Z,2696
2018-08-04T05:07:32.992Z,2716
2018-08-04T05:08:43.225Z,2708
2018-08-04T05:09:53.559Z,2596
2018-08-04T05:11:03.742Z,2500
2018-08-04T05:12:13.968Z,2340
2018-08-04T05:13:24.320Z,2276
2018-08-04T05:14:34.634Z,2184
2018-08-04T05:15:44.903Z,2092
2018-08-04T05:16:55.060Z,2092
2018-08-04T05:18:05.228Z,2080
2018-08-04T05:19:15.419Z,2100
2018-08-04T05:20:25.549Z,2132
2018-08-04T05:21:35.879Z,2176
2018-08-04T05:22:46.212Z,2204
2018-08-04T05:23:56.549Z,2220
2018-08-04T05:25:06.698Z,2228
2018-08-04T05:26:16.357Z,2256
2018-08-04T05:27:26.510Z,2316
2018-08-04T05:28:36.449Z,2400
2018-08-04T05:29:46.057Z,2488
2018-08-04T05:30:56.178Z,2572
2018-08-04T05:32:06.767Z,2664
2018-08-04T05:33:17.947Z,2724
2018-08-04T05:34:28.078Z,2744
2018-08-04T05:35:38.207Z,2784
2018-08-04T05:36:48.539Z,2892
2018-08-04T05:37:58.694Z,3088
2018-08-04T05:39:09.011Z,3348
2018-08-04T05:40:19.169Z,3580
2018-08-04T05:41:29.311Z,3684
2018-08-04T05:42:39.524Z,3704
2018-08-04T05:43:49.767Z,3696
2018-08-04T05:45:00.190Z,3660
2018-08-04T05:46:10.558Z,3576
2018-08-04T05:47:20.915Z,3540
2018-08-04T05:48:31.132Z,3540
2018-08-04T05:49:41.376Z,3536
2018-08-04T05:50:51.317Z,3548
2018-08-04T05:52:01.079Z,3560
2018-08-04T05:53:10.877Z,3524
2018-08-04T05:54:21.013Z,3460
2018-08-04T05:55:31.389Z,3428
2018-08-04T05:56:41.514Z,3512
2018-08-04T05:57:51.734Z,3788
2018-08-04T05:59:01.902Z,4000
2018-08-04T06:00:11.828Z,4164
2018-08-04T06:01:22.053Z,4076
2018-08-04T06:02:32.256Z,4324
2018-08-04T06:03:42.396Z,4384
2018-08-04T06:04:52.541Z,4392
2018-08-04T06:06:02.659Z,4376
2018-08-04T06:07:12.867Z,4360
2018-08-04T06:08:23.091Z,4360
2018-08-04T06:09:33.256Z,4400
2018-08-04T06:10:43.062Z,4448
2018-08-04T06:11:53.226Z,4548
2018-08-04T06:13:03.445Z,4600
2018-08-04T06:14:13.576Z,4604
2018-08-04T06:15:23.835Z,4572
2018-08-04T06:16:33.981Z,4520
2018-08-04T06:17:43.689Z,4516
2018-08-04T06:18:53.825Z,4508
2018-08-04T06:20:03.965Z,4528
2018-08-04T06:21:14.095Z,4576
2018-08-04T06:22:24.241Z,4656
2018-08-04T06:23:34.390Z,4712
2018-08-04T06:24:44.608Z,4768
2018-08-04T06:25:54.753Z,4828
2018-08-04T06:27:04.929Z,4880
2018-08-04T06:28:15.370Z,4884
2018-08-04T06:29:25.640Z,4908
2018-08-04T06:30:36.039Z,4912
2018-08-04T06:31:46.578Z,5020
2018-08-04T06:32:56.708Z,5096
2018-08-04T06:34:07.883Z,5168
2018-08-04T06:35:18.119Z,5280
2018-08-04T06:36:28.330Z,5408
2018-08-04T06:37:38.590Z,5496
2018-08-04T06:38:48.807Z,5624
2018-08-04T06:39:58.970Z,5732
2018-08-04T06:41:09.208Z,5848
2018-08-04T06:42:19.587Z,5964
2018-08-04T06:43:29.771Z,6068
2018-08-04T06:44:39.950Z,6160
2018-08-04T06:45:50.151Z,6232
2018-08-04T06:47:00.309Z,6300
2018-08-04T06:48:10.622Z,6412
2018-08-04T06:49:20.890Z,6512
2018-08-04T06:50:30.769Z,6532
2018-08-04T06:51:41.878Z,6468
2018-08-04T06:52:52.183Z,6368
2018-08-04T06:54:02.878Z,6276
2018-08-04T06:55:13.040Z,6208
2018-08-04T06:56:23.227Z,6200
2018-08-04T06:57:33.027Z,6252
2018-08-04T06:58:43.176Z,6312
2018-08-04T06:59:53.370Z,6352
2018-08-04T07:01:03.502Z,6384
2018-08-04T07:02:13.381Z,6432
2018-08-04T07:03:23.529Z,6488
2018-08-04T07:04:33.681Z,6540
2018-08-04T07:05:43.828Z,6580
2018-08-04T07:06:54.078Z,6644
2018-08-04T07:08:04.323Z,6700
2018-08-04T07:09:14.567Z,6664
2018-08-04T07:10:24.556Z,6728
2018-08-04T07:11:34.684Z,6784
2018-08-04T07:12:44.858Z,6832
2018-08-04T07:13:55.263Z,6868
2018-08-04T07:15:05.379Z,6908
2018-08-04T07:16:15.536Z,6964
2018-08-04T07:17:25.677Z,6828
2018-08-04T07:18:35.832Z,7160
2018-08-04T07:19:46.005Z,7292
2018-08-04T07:20:56.155Z,7340
2018-08-04T07:22:06.028Z,7360
2018-08-04T07:23:16.266Z,7224
2018-08-04T07:24:26.530Z,7244
2018-08-04T07:25:36.480Z,7504
2018-08-04T07:26:46.617Z,7600
2018-08-04T07:27:56.515Z,7632
2018-08-04T07:29:07.097Z,7668
2018-08-04T07:30:17.681Z,7728
2018-08-04T07:31:27.589Z,7800
2018-08-04T07:32:37.754Z,7868
2018-08-04T07:33:47.891Z,7932
2018-08-04T07:34:57.772Z,8036
2018-08-04T07:36:07.701Z,8160
2018-08-04T07:37:17.933Z,8268
2018-08-04T07:38:28.091Z,8372
2018-08-04T07:39:39.426Z,8476
2018-08-04T07:40:49.647Z,8528
2018-08-04T07:41:59.833Z,8456
2018-08-04T07:43:09.985Z,8576
2018-08-04T07:44:20.222Z,8696
2018-08-04T07:45:30.267Z,8716
2018-08-04T07:46:40.182Z,8752
2018-08-04T07:47:50.330Z,8828
2018-08-04T07:49:00.657Z,8936
2018-08-04T07:50:10.902Z,9096
2018-08-04T07:51:21.188Z,9236
2018-08-04T07:52:31.358Z,9360
2018-08-04T07:53:41.587Z,9440
2018-08-04T07:54:51.944Z,9512
2018-08-04T07:56:01.859Z,9580
2018-08-04T07:57:12.023Z,9676
2018-08-04T07:58:22.186Z,9800
2018-08-04T07:59:32.573Z,9924
2018-08-04T08:00:42.968Z,10088
2018-08-04T08:01:53.135Z,10256
2018-08-04T08:03:03.283Z,10392
2018-08-04T08:04:13.451Z,10540
2018-08-04T08:05:23.620Z,10660
2018-08-04T08:06:33.981Z,10752
2018-08-04T08:07:44.201Z,10752
2018-08-04T08:08:54.384Z,10556
2018-08-04T08:10:04.580Z,10316
2018-08-04T08:11:15.212Z,10528
2018-08-04T08:12:25.647Z,10612
2018-08-04T08:13:35.824Z,10592
2018-08-04T08:14:46.020Z,10488
2018-08-04T08:15:55.968Z,10576
2018-08-04T08:17:06.145Z,10780
2018-08-04T08:18:16.327Z,10876
2018-08-04T08:19:26.069Z,11044
2018-08-04T08:20:36.239Z,11184
2018-08-04T08:21:46.382Z,11328
2018-08-04T08:22:56.533Z,11540
2018-08-04T08:24:06.833Z,11856
2018-08-04T08:25:17.048Z,12200
2018-08-04T08:26:27.221Z,12476
2018-08-04T08:27:37.344Z,12432
2018-08-04T08:28:46.962Z,12528
2018-08-04T08:29:57.114Z,12996
2018-08-04T08:31:07.310Z,13356
2018-08-04T08:32:17.526Z,13352
2018-08-04T08:33:27.423Z,15084
2018-08-04T08:34:37.567Z,16800
2018-08-04T08:35:47.704Z,17696
2018-08-04T08:36:57.867Z,18656
2018-08-04T08:38:08.049Z,19776
2018-08-04T08:39:17.860Z,21024
2018-08-04T08:40:27.932Z,32320
2018-08-04T08:41:38.260Z,50656
2018-08-04T08:42:48.175Z,50560
2018-08-04T08:43:58.325Z,51392
2018-08-04T08:45:08.482Z,43712
2018-08-04T08:46:18.625Z,48608
2018-08-04T08:47:28.887Z,44160
2018-08-04T08:48:39.030Z,48576
2018-08-04T08:49:50.133Z,49824
2018-08-04T08:51:00.319Z,46496
2018-08-04T08:52:10.487Z,16480
2018-08-04T08:53:21.134Z,21056
2018-08-04T08:54:31.606Z,16992
2018-08-04T08:55:42.004Z,17472
2018-08-04T08:56:52.167Z,19744
2018-08-04T08:58:02.338Z,14056
2018-08-04T08:59:12.553Z,15296
2018-08-04T09:00:22.789Z,15456
2018-08-04T09:01:32.978Z,16480
2018-08-04T09:02:43.145Z,16448
2018-08-04T09:03:53.398Z,14304
2018-08-04T09:05:03.630Z,16192
2018-08-04T09:06:13.855Z,14176
2018-08-04T09:07:24.009Z,17664
2018-08-04T09:08:34.389Z,21056
2018-08-04T09:09:44.617Z,25792
2018-08-04T09:10:54.775Z,31776
2018-08-04T09:12:04.960Z,15872
2018-08-04T09:13:15.861Z,27136
2018-08-04T09:14:26.080Z,29728
2018-08-04T09:15:36.377Z,37888
2018-08-04T09:16:46.554Z,44704
2018-08-04T09:17:56.753Z,52768
2018-08-04T09:19:06.915Z,50912
2018-08-04T09:20:16.830Z,53248
2018-08-04T09:21:26.991Z,47968
2018-08-04T09:22:37.158Z,38752
2018-08-04T09:23:47.328Z,34816
2018-08-04T09:24:57.480Z,33536
2018-08-04T09:26:07.666Z,34880
2018-08-04T09:27:17.579Z,39136
2018-08-04T09:28:27.526Z,40352
2018-08-04T09:29:37.736Z,41056
2018-08-04T09:30:48.096Z,42560
2018-08-04T09:31:57.985Z,42816
2018-08-04T09:33:08.136Z,42656
2018-08-04T09:34:18.351Z,44832
2018-08-04T09:35:28.252Z,32192
2018-08-04T09:36:38.403Z,42848
2018-08-04T09:37:48.555Z,43904
2018-08-04T09:38:58.752Z,41440
2018-08-04T09:40:08.755Z,43072
2018-08-04T09:41:18.935Z,43392
2018-08-04T09:42:29.130Z,35296
2018-08-04T09:43:39.330Z,31360
2018-08-04T09:44:49.828Z,35584
2018-08-04T09:46:00.018Z,33696
2018-08-04T09:47:10.165Z,38464
2018-08-04T09:48:20.075Z,49856
2018-08-04T09:49:30.235Z,47232
2018-08-04T09:50:39.906Z,43680
2018-08-04T09:51:50.082Z,39520
2018-08-04T09:53:00.279Z,34368
2018-08-04T09:54:10.505Z,32416
2018-08-04T09:55:20.455Z,31552
2018-08-04T09:56:30.640Z,35712
2018-08-04T09:57:40.807Z,35040
2018-08-04T09:58:50.985Z,30560
2018-08-04T10:00:01.178Z,45760
2018-08-04T10:01:11.119Z,54816
2018-08-04T10:02:21.296Z,53056
2018-08-04T10:03:32.413Z,52544
2018-08-04T10:04:42.580Z,53120
2018-08-04T10:05:52.726Z,44832
2018-08-04T10:07:02.890Z,42656
2018-08-04T10:08:13.043Z,37984
2018-08-04T10:09:23.220Z,33920
2018-08-04T10:10:33.157Z,45024
2018-08-04T10:11:43.359Z,47136
2018-08-04T10:12:53.527Z,59520
2018-08-04T10:14:03.179Z,57344
2018-08-04T10:15:13.375Z,57920
2018-08-04T10:16:23.582Z,65696
2018-08-04T10:17:33.495Z,72320
2018-08-04T10:18:43.881Z,66816
2018-08-04T10:19:54.069Z,63648
2018-08-04T10:21:04.310Z,69888
2018-08-04T10:22:14.526Z,73312
2018-08-04T10:23:24.328Z,64800
2018-08-04T10:24:34.542Z,56288
2018-08-04T10:25:44.399Z,34144
2018-08-04T10:26:54.562Z,52640
2018-08-04T10:28:04.763Z,55456
2018-08-04T10:29:14.913Z,59584
2018-08-04T10:30:25.080Z,69504
2018-08-04T10:31:35.266Z,67392
2018-08-04T10:32:46.036Z,44192
2018-08-04T10:33:56.365Z,56000
2018-08-04T10:35:06.505Z,56512
2018-08-04T10:36:16.886Z,52832
2018-08-04T10:37:27.046Z,52960
2018-08-04T10:38:37.418Z,48800
2018-08-04T10:39:47.565Z,43200
2018-08-04T10:40:57.949Z,33664
2018-08-04T10:42:07.946Z,29792
2018-08-04T10:43:18.232Z,26752
2018-08-04T10:44:28.221Z,23552
2018-08-04T10:45:38.429Z,23232
2018-08-04T10:46:48.623Z,32416
2018-08-04T10:47:58.779Z,40224
2018-08-04T10:49:08.984Z,45888
2018-08-04T10:50:19.371Z,50080
2018-08-04T10:51:29.538Z,24640
2018-08-04T10:52:39.815Z,21856
2018-08-04T10:53:49.984Z,24096
2018-08-04T10:55:00.145Z,37056
2018-08-04T10:56:10.083Z,42368
2018-08-04T10:57:20.327Z,23648
2018-08-04T10:58:30.716Z,31872
2018-08-04T10:59:40.372Z,28960
2018-08-04T11:00:50.527Z,31616
2018-08-04T11:02:00.703Z,43360
2018-08-04T11:03:10.904Z,62208
2018-08-04T11:04:21.059Z,68736
2018-08-04T11:05:31.226Z,61664
2018-08-04T11:06:41.393Z,61024
2018-08-04T11:07:51.622Z,69632
2018-08-04T11:09:01.803Z,65664
2018-08-04T11:10:11.983Z,44928
2018-08-04T11:11:22.284Z,41664
2018-08-04T11:12:32.568Z,38816
2018-08-04T11:13:42.877Z,52928
2018-08-04T11:14:53.103Z,54496
2018-08-04T11:16:03.301Z,52064
2018-08-04T11:17:14.484Z,50496
2018-08-04T11:18:24.708Z,43744
2018-08-04T11:19:34.902Z,42624
2018-08-04T11:20:45.077Z,37632
2018-08-04T11:21:55.243Z,33920
2018-08-04T11:23:05.419Z,31232
2018-08-04T11:24:16.216Z,25216
2018-08-04T11:25:26.448Z,24928
2018-08-04T11:26:36.621Z,23840
2018-08-04T11:27:46.323Z,31488
2018-08-04T11:28:56.493Z,30720
2018-08-04T11:30:06.684Z,18912
2018-08-04T11:31:16.859Z,20288
2018-08-04T11:32:27.741Z,24000
2018-08-04T11:33:37.947Z,28448
2018-08-04T11:34:48.191Z,57152
2018-08-04T11:35:58.479Z,79680
2018-08-04T11:37:08.405Z,92224
2018-08-04T11:38:18.552Z,85536
2018-08-04T11:39:28.726Z,77760
2018-08-04T11:40:38.942Z,80416
2018-08-04T11:41:50.077Z,82240
2018-08-04T11:43:00.239Z,80704
2018-08-04T11:44:10.542Z,81344
2018-08-04T11:45:20.837Z,84576
2018-08-04T11:46:31.062Z,83936
2018-08-04T11:47:41.236Z,77440
2018-08-04T11:48:51.153Z,73856
2018-08-04T11:50:01.299Z,77696
2018-08-04T11:51:12.428Z,79488
2018-08-04T11:52:22.628Z,75648
2018-08-04T11:53:32.790Z,80032
2018-08-04T11:54:42.989Z,92192
2018-08-04T11:55:53.183Z,90656
2018-08-04T11:57:03.385Z,75744
2018-08-04T11:58:13.598Z,65152
2018-08-04T11:59:23.875Z,69344
2018-08-04T12:00:34.103Z,78144
2018-08-04T12:01:44.367Z,79456
2018-08-04T12:02:55.264Z,73568
2018-08-04T12:04:05.453Z,73376
2018-08-04T12:05:15.686Z,77888
2018-08-04T12:06:25.992Z,75840
2018-08-04T12:07:36.287Z,73344
2018-08-04T12:08:46.468Z,76736
2018-08-04T12:09:56.687Z,83392
2018-08-04T12:11:07.024Z,80768
2018-08-04T12:12:17.493Z,76896
2018-08-04T12:13:27.668Z,76512
2018-08-04T12:14:37.834Z,77536
2018-08-04T12:15:47.747Z,74688
2018-08-04T12:16:57.938Z,73664
2018-08-04T12:18:08.305Z,78080
2018-08-04T12:19:18.109Z,80128
2018-08-04T12:20:28.052Z,78208
2018-08-04T12:21:38.232Z,76896
2018-08-04T12:22:48.179Z,72256
2018-08-04T12:23:58.359Z,63552
2018-08-04T12:25:08.563Z,62240
2018-08-04T12:26:18.904Z,73472
2018-08-04T12:27:29.086Z,83072
2018-08-04T12:28:39.364Z,81632
2018-08-04T12:29:49.569Z,75328
2018-08-04T12:30:59.851Z,71904
2018-08-04T12:32:10.056Z,66592
2018-08-04T12:33:20.279Z,61248
2018-08-04T12:34:30.535Z,65504
2018-08-04T12:35:40.699Z,76832
2018-08-04T12:36:50.889Z,78944
2018-08-04T12:38:01.105Z,70688
2018-08-04T12:39:11.392Z,69472
2018-08-04T12:40:21.302Z,81760
2018-08-04T12:41:31.268Z,83008
2018-08-04T12:42:41.436Z,64320
2018-08-04T12:43:51.369Z,51840
2018-08-04T12:45:01.558Z,57824
2018-08-04T12:46:11.787Z,72576
2018-08-04T12:47:21.697Z,84800
2018-08-04T12:48:31.853Z,90144
2018-08-04T12:49:42.068Z,81792
2018-08-04T12:50:52.245Z,66944
2018-08-04T12:52:02.490Z,61856
2018-08-04T12:53:12.638Z,60352
2018-08-04T12:54:22.264Z,59008
2018-08-04T12:55:32.506Z,64800
2018-08-04T12:56:42.783Z,72448
2018-08-04T12:57:52.936Z,73184
2018-08-04T12:59:03.135Z,71264
2018-08-04T13:00:13.419Z,67520
2018-08-04T13:01:24.403Z,61728
2018-08-04T13:02:34.739Z,62496
2018-08-04T13:03:44.980Z,67424
2018-08-04T13:04:55.272Z,68544
2018-08-04T13:06:05.284Z,65344
2018-08-04T13:07:15.289Z,63520
2018-08-04T13:08:25.478Z,66880
2018-08-04T13:09:35.382Z,70656
2018-08-04T13:10:45.543Z,73184
2018-08-04T13:11:55.813Z,75744
2018-08-04T13:13:06.119Z,68096
2018-08-04T13:14:16.026Z,59936
2018-08-04T13:15:26.244Z,62272
2018-08-04T13:16:36.529Z,65728
2018-08-04T13:17:46.738Z,64032
2018-08-04T13:18:56.649Z,63776
2018-08-04T13:20:07.817Z,66784
2018-08-04T13:21:18.062Z,65056
2018-08-04T13:22:28.262Z,64512
2018-08-04T13:23:38.443Z,70240
2018-08-04T13:24:49.591Z,70368
2018-08-04T13:25:59.773Z,66976
2018-08-04T13:27:09.962Z,66592
2018-08-04T13:28:19.861Z,67456
2018-08-04T13:29:30.129Z,63424
2018-08-04T13:30:40.343Z,64832
2018-08-04T13:31:50.554Z,67552
2018-08-04T13:33:00.475Z,63680
2018-08-04T13:34:10.696Z,57280
2018-08-04T13:35:20.863Z,53088
2018-08-04T13:36:31.024Z,63424
2018-08-04T13:37:41.018Z,73280
2018-08-04T13:38:51.327Z,66176
2018-08-04T13:40:01.548Z,51744
2018-08-04T13:41:11.753Z,53472
2018-08-04T13:42:21.941Z,65376
2018-08-04T13:43:32.186Z,69856
2018-08-04T13:44:41.995Z,64736
2018-08-04T13:45:52.190Z,60224
2018-08-04T13:47:03.353Z,54048
2018-08-04T13:48:13.576Z,55840
2018-08-04T13:49:23.738Z,61152
2018-08-04T13:50:33.990Z,56704
2018-08-04T13:51:44.263Z,52544
2018-08-04T13:52:54.306Z,57856
2018-08-04T13:54:04.590Z,59936
2018-08-04T13:55:14.790Z,49792
2018-08-04T13:56:25.112Z,47424
2018-08-04T13:57:35.321Z,60288
2018-08-04T13:58:45.481Z,67008
2018-08-04T13:59:55.876Z,59872
2018-08-04T14:01:06.054Z,51872
2018-08-04T14:02:15.966Z,47456
2018-08-04T14:03:26.169Z,42720
2018-08-04T14:04:36.147Z,48544
2018-08-04T14:05:46.421Z,59168
2018-08-04T14:06:56.704Z,10104
2018-08-04T14:08:06.618Z,9120
2018-08-04T14:09:17.010Z,22272
2018-08-04T14:10:29.132Z,7856
2018-08-04T14:11:40.320Z,9040
2018-08-04T14:12:50.538Z,8572
2018-08-04T14:14:00.840Z,51456
2018-08-04T14:15:11.017Z,52608
2018-08-04T14:16:21.256Z,51488
2018-08-04T14:17:31.682Z,48384
2018-08-04T14:18:41.993Z,47616
2018-08-04T14:19:51.887Z,52352
2018-08-04T14:21:01.802Z,55072
2018-08-04T14:22:11.980Z,48928
2018-08-04T14:23:22.212Z,45760
2018-08-04T14:24:32.190Z,50304
2018-08-04T14:25:42.429Z,49312
2018-08-04T14:26:52.353Z,42848
2018-08-04T14:28:02.615Z,46656
2018-08-04T14:29:12.806Z,53888
2018-08-04T14:30:22.967Z,49664
2018-08-04T14:31:33.206Z,46432
2018-08-04T14:32:43.364Z,45824
2018-08-04T14:33:53.571Z,47296
2018-08-04T14:35:04.084Z,51392
2018-08-04T14:36:14.585Z,52384
2018-08-04T14:37:24.795Z,47936
2018-08-04T14:38:35.024Z,44736
2018-08-04T14:39:44.922Z,44672
2018-08-04T14:40:55.082Z,43552
2018-08-04T14:42:05.243Z,41952
2018-08-04T14:43:15.502Z,41856
2018-08-04T14:44:25.684Z,43488
2018-08-04T14:45:35.868Z,44192
2018-08-04T14:46:46.081Z,45888
2018-08-04T14:47:56.886Z,44768
2018-08-04T14:49:07.062Z,42208
2018-08-04T14:50:16.993Z,28864
2018-08-04T14:51:27.014Z,41664
2018-08-04T14:52:37.244Z,47072
2018-08-04T14:53:47.398Z,32352
2018-08-04T14:54:57.369Z,39168
2018-08-04T14:56:07.749Z,39680
2018-08-04T14:57:17.914Z,45024
2018-08-04T14:58:28.088Z,42272
2018-08-04T14:59:38.262Z,37920
2018-08-04T15:00:48.466Z,38880
2018-08-04T15:01:58.741Z,38240
2018-08-04T15:03:08.904Z,38080
2018-08-04T15:04:19.163Z,38720
2018-08-04T15:05:29.121Z,38752
2018-08-04T15:06:38.983Z,36416
2018-08-04T15:07:48.890Z,37504
2018-08-04T15:08:59.153Z,39904
2018-08-04T15:10:09.781Z,36736
2018-08-04T15:11:20.270Z,35712
2018-08-04T15:12:30.520Z,39712
2018-08-04T15:13:40.738Z,38624
2018-08-04T15:14:50.972Z,35584
2018-08-04T15:16:01.140Z,33280
2018-08-04T15:17:11.357Z,33920
2018-08-04T15:18:21.564Z,37184
2018-08-04T15:19:31.576Z,35424
2018-08-04T15:20:41.718Z,33248
2018-08-04T15:21:51.541Z,36256
2018-08-04T15:23:01.459Z,36928
2018-08-04T15:24:11.757Z,35744
2018-08-04T15:25:21.698Z,32992
2018-08-04T15:26:31.851Z,36480
2018-08-04T15:27:41.919Z,31776
2018-08-04T15:28:52.173Z,21824
2018-08-04T15:30:02.390Z,13308
2018-08-04T15:31:12.641Z,11380
2018-08-04T15:32:22.826Z,10420
2018-08-04T15:33:33.013Z,9928
2018-08-04T15:34:43.223Z,9636
2018-08-04T15:35:53.393Z,9336
2018-08-04T15:37:03.662Z,9024
2018-08-04T15:38:13.835Z,7060
2018-08-04T15:39:24.030Z,6932
2018-08-04T15:40:34.240Z,6356
2018-08-04T15:41:44.419Z,7436